Time;durP1;ratioP1;P1;durP2;ratioP2;P2;SDS_P1;SDS_P2;PMS_P1;PMS_P2;Temp;Humidity;BMP_temperature;BMP_pressure;BME280_temperature;BME280_humidity;BME280_pressure;Samples;Min_cycle;Max_cycle;Signal;HPM_P1;HPM_P2
2023/02/28 00:00:50;;;;;;;;;;;;;;;;;;5099162;28;20304;-49
2023/02/28 00:03:16;;;;;;;;;;;;;;;;;;5100947;28;19915;-46
2023/02/28 00:05:42;;;;;;;;;;;;;;;;;;5100487;28;19996;-45
2023/02/28 00:08:07;;;;;;;;;;;;;;;;;;5100855;28;20351;-46
2023/02/28 00:10:33;;;;;;;;;;;;;;;;;;5100600;28;19915;-46
2023/02/28 00:12:59;;;;;;;;;;;;;;;;;;5100188;28;19994;-46
2023/02/28 00:15:25;;;;;;;;;;;;;;;;;;5100299;28;19916;-48
2023/02/28 00:17:51;;;;;;;;;;;;;;;;;;5100576;28;19953;-49
2023/02/28 00:20:17;;;;;;;;;;;;;;;;;;5100569;28;19912;-49
2023/02/28 00:22:43;;;;;;;;;;;;;;;;;;5100354;28;19908;-47
2023/02/28 00:25:09;;;;;;;;;;;;;;;;;;5100048;28;19978;-48
2023/02/28 00:27:35;;;;;;;;;;;;;;;;;;5100289;28;19965;-46
2023/02/28 00:30:01;;;;;;;;;;;;;;;;;;5100463;28;20283;-50
2023/02/28 00:32:27;;;;;;;;;;;;;;;;;;5100029;28;19919;-48
2023/02/28 00:34:53;;;;;;;;;;;;;;;;;;5100167;28;19908;-46
2023/02/28 00:37:19;;;;;;;;;;;;;;;;;;5100321;28;19946;-47
2023/02/28 00:39:45;;;;;;;;;;;;;;;;;;5099985;28;19908;-50
2023/02/28 00:42:11;;;;;;;;;;;;;;;;;;5100303;28;20416;-50
2023/02/28 00:44:37;;;;;;;;;;;;;;;;;;5099630;28;19916;-47
2023/02/28 00:47:06;;;;;;;;;;;;;;;;;;5099902;28;19931;-48
2023/02/28 00:49:32;;;;;;;;;;;;;;;;;;5099652;28;19959;-51
2023/02/28 00:51:57;;;;;;;;;;;;;;;;;;5099587;28;19909;-48
2023/02/28 00:54:23;;;;;;;;;;;;;;;;;;5099772;28;19908;-53
2023/02/28 00:56:50;;;;;;;;;;;;;;;;;;5099895;28;19915;-46
2023/02/28 00:59:16;;;;;;;;;;;;;;;;;;5099521;28;19908;-48
2023/02/28 01:01:42;;;;;;;;;;;;;;;;;;5099483;28;19920;-46
2023/02/28 01:04:08;;;;;;;;;;;;;;;;;;5099282;28;19961;-45
2023/02/28 01:06:33;;;;;;;;;;;;;;;;;;5099723;28;19950;-48
2023/02/28 01:08:59;;;;;;;;;;;;;;;;;;5099107;28;19916;-46
2023/02/28 01:11:25;;;;;;;;;;;;;;;;;;5099145;28;19908;-48
2023/02/28 01:13:51;;;;;;;;;;;;;;;;;;5099530;28;19908;-45
2023/02/28 01:16:17;;;;;;;;;;;;;;;;;;5099304;28;20297;-47
2023/02/28 01:18:43;;;;;;;;;;;;;;;;;;5099484;28;19959;-48
2023/02/28 01:21:09;;;;;;;;;;;;;;;;;;5099091;28;20006;-48
2023/02/28 01:23:35;;;;;;;;;;;;;;;;;;5098930;28;19916;-50
2023/02/28 01:26:01;;;;;;;;;;;;;;;;;;5098917;28;19908;-48
2023/02/28 01:28:27;;;;;;;;;;;;;;;;;;5098949;28;20359;-49
2023/02/28 01:30:53;;;;;;;;;;;;;;;;;;5099083;28;19908;-52
2023/02/28 01:33:19;;;;;;;;;;;;;;;;;;5098900;28;19912;-47
2023/02/28 01:35:45;;;;;;;;;;;;;;;;;;5098718;28;19977;-46
2023/02/28 01:38:11;;;;;;;;;;;;;;;;;;5098648;28;19904;-47
2023/02/28 01:40:37;;;;;;;;;;;;;;;;;;5098874;28;19938;-46
2023/02/28 01:43:03;;;;;;;;;;;;;;;;;;5099018;28;19904;-45
2023/02/28 01:45:29;;;;;;;;;;;;;;;;;;5098588;28;19912;-46
2023/02/28 01:47:55;;;;;;;;;;;;;;;;;;5098998;28;19915;-47
2023/02/28 01:50:21;;;;;;;;;;;;;;;;;;5098720;28;19912;-46
2023/02/28 01:52:46;;;;;;;;;;;;;;;;;;5098693;28;19940;-47
2023/02/28 01:55:12;;;;;;;;;;;;;;;;;;5098789;28;19908;-46
2023/02/28 01:57:38;;;;;;;;;;;;;;;;;;5098431;28;19915;-49
2023/02/28 02:00:04;;;;;;;;;;;;;;;;;;5098817;28;19908;-45
2023/02/28 02:02:30;;;;;;;;;;;;;;;;;;5097950;28;19927;-45
2023/02/28 02:04:56;;;;;;;;;;;;;;;;;;5098715;28;20336;-46
2023/02/28 02:07:22;;;;;;;;;;;;;;;;;;5098255;28;19908;-50
2023/02/28 02:09:48;;;;;;;;;;;;;;;;;;5098285;28;19912;-45
2023/02/28 02:12:14;;;;;;;;;;;;;;;;;;5098228;28;19999;-45
2023/02/28 02:14:40;;;;;;;;;;;;;;;;;;5098179;28;19953;-47
2023/02/28 02:17:06;;;;;;;;;;;;;;;;;;5098299;28;19954;-47
2023/02/28 02:19:32;;;;;;;;;;;;;;;;;;5098433;28;19908;-47
2023/02/28 02:21:58;;;;;;;;;;;;;;;;;;5097743;28;19964;-47
2023/02/28 02:24:24;;;;;;;;;;;;;;;;;;5097797;28;19912;-50
2023/02/28 02:26:50;;;;;;;;;;;;;;;;;;5097865;28;19912;-46
2023/02/28 02:29:16;;;;;;;;;;;;;;;;;;5098211;28;19904;-50
2023/02/28 02:31:42;;;;;;;;;;;;;;;;;;5098166;28;20431;-47
2023/02/28 02:34:08;;;;;;;;;;;;;;;;;;5098211;28;19904;-46
2023/02/28 02:36:34;;;;;;;;;;;;;;;;;;5097913;28;19908;-45
2023/02/28 02:39:00;;;;;;;;;;;;;;;;;;5097998;28;19939;-46
2023/02/28 02:41:26;;;;;;;;;;;;;;;;;;5098131;28;19930;-48
2023/02/28 02:43:52;;;;;;;;;;;;;;;;;;5097745;28;19912;-47
2023/02/28 02:46:17;;;;;;;;;;;;;;;;;;5098011;28;19948;-49
2023/02/28 02:48:43;;;;;;;;;;;;;;;;;;5097945;28;19904;-48
2023/02/28 02:51:11;;;;;;;;;;;;;;;;;;5097992;28;19987;-46
2023/02/28 02:53:38;;;;;;;;;;;;;;;;;;5097578;28;19934;-47
2023/02/28 02:56:04;;;;;;;;;;;;;;;;;;5097957;28;19911;-49
2023/02/28 02:58:30;;;;;;;;;;;;;;;;;;5097723;28;19909;-50
2023/02/28 03:00:56;;;;;;;;;;;;;;;;;;5097421;28;19924;-47
2023/02/28 03:03:28;;;;;;;;;;;;;;;;;;5097823;28;19912;-48
2023/02/28 03:05:54;;;;;;;;;;;;;;;;;;5097556;28;19908;-47
2023/02/28 03:08:20;;;;;;;;;;;;;;;;;;5097596;28;19908;-46
2023/02/28 03:10:46;;;;;;;;;;;;;;;;;;5098069;28;19914;-45
2023/02/28 03:13:12;;;;;;;;;;;;;;;;;;5097546;28;19908;-48
2023/02/28 03:15:38;;;;;;;;;;;;;;;;;;5097350;28;20363;-46
2023/02/28 03:18:04;;;;;;;;;;;;;;;;;;5097733;28;19971;-48
2023/02/28 03:20:30;;;;;;;;;;;;;;;;;;5097824;28;19908;-45
2023/02/28 03:22:56;;;;;;;;;;;;;;;;;;5098072;28;19915;-45
2023/02/28 03:25:22;;;;;;;;;;;;;;;;;;5097739;28;20303;-46
2023/02/28 03:27:48;;;;;;;;;;;;;;;;;;5098185;28;19908;-44
2023/02/28 03:30:14;;;;;;;;;;;;;;;;;;5097664;28;20000;-46
2023/02/28 03:32:40;;;;;;;;;;;;;;;;;;5097422;28;20363;-50
2023/02/28 03:35:06;;;;;;;;;;;;;;;;;;5100611;28;19908;-46
2023/02/28 03:37:34;;;;;;;;;;;;;;;;;;5101123;28;19908;-45
2023/02/28 03:40:00;;;;;;;;;;;;;;;;;;5101361;28;19908;-47
2023/02/28 03:42:26;;;;;;;;;;;;;;;;;;5101007;28;19915;-50
2023/02/28 03:44:52;;;;;;;;;;;;;;;;;;5101017;28;19912;-50
2023/02/28 03:47:18;;;;;;;;;;;;;;;;;;5101171;28;20452;-46
2023/02/28 03:49:44;;;;;;;;;;;;;;;;;;5101088;28;20080;-45
2023/02/28 03:52:10;;;;;;;;;;;;;;;;;;5100883;28;19915;-48
2023/02/28 03:54:36;;;;;;;;;;;;;;;;;;5100556;28;19909;-49
2023/02/28 03:57:02;;;;;;;;;;;;;;;;;;5100976;28;19921;-48
2023/02/28 03:59:28;;;;;;;;;;;;;;;;;;5100495;28;19908;-46
2023/02/28 04:01:54;;;;;;;;;;;;;;;;;;5100415;28;19927;-45
2023/02/28 04:04:20;;;;;;;;;;;;;;;;;;5100520;28;19923;-48
2023/02/28 04:06:46;;;;;;;;;;;;;;;;;;5099180;28;19908;-48
2023/02/28 04:09:12;;;;;;;;;;;;;;;;;;5100686;28;19908;-48
2023/02/28 04:11:38;;;;;;;;;;;;;;;;;;5100795;28;19943;-46
2023/02/28 04:14:04;;;;;;;;;;;;;;;;;;5100559;28;19931;-50
2023/02/28 04:16:30;;;;;;;;;;;;;;;;;;5100663;28;19908;-45
2023/02/28 04:19:01;;;;;;;;;;;;;;;;;;5100512;28;19908;-45
2023/02/28 04:21:27;;;;;;;;;;;;;;;;;;5100119;28;19912;-46
2023/02/28 04:23:53;;;;;;;;;;;;;;;;;;5100189;28;19912;-48
2023/02/28 04:26:19;;;;;;;;;;;;;;;;;;5100597;28;19915;-49
2023/02/28 04:28:45;;;;;;;;;;;;;;;;;;5100338;28;19904;-47
2023/02/28 04:31:11;;;;;;;;;;;;;;;;;;5100339;28;19985;-47
2023/02/28 04:33:37;;;;;;;;;;;;;;;;;;5100012;28;19912;-46
2023/02/28 04:36:03;;;;;;;;;;;;;;;;;;5100175;28;19914;-47
2023/02/28 04:38:29;;;;;;;;;;;;;;;;;;5100403;28;20349;-48
2023/02/28 04:40:55;;;;;;;;;;;;;;;;;;5099893;28;20022;-46
2023/02/28 04:43:21;;;;;;;;;;;;;;;;;;5100309;28;19953;-45
2023/02/28 04:45:47;;;;;;;;;;;;;;;;;;5099415;28;19912;-47
2023/02/28 04:48:13;;;;;;;;;;;;;;;;;;5099928;28;19957;-51
2023/02/28 04:50:39;;;;;;;;;;;;;;;;;;5100132;28;20407;-48
2023/02/28 04:53:05;;;;;;;;;;;;;;;;;;5100266;28;19915;-47
2023/02/28 04:55:31;;;;;;;;;;;;;;;;;;5099813;28;19915;-48
2023/02/28 04:57:57;;;;;;;;;;;;;;;;;;5099728;28;19914;-46
2023/02/28 05:00:23;;;;;;;;;;;;;;;;;;5099908;28;19908;-48
2023/02/28 05:02:49;;;;;;;;;;;;;;;;;;5099064;28;19927;-50
2023/02/28 05:05:17;;;;;;;;;;;;;;;;;;5099692;28;19912;-49
2023/02/28 05:07:43;;;;;;;;;;;;;;;;;;5099593;28;19951;-50
2023/02/28 05:10:09;;;;;;;;;;;;;;;;;;5099373;28;19908;-49
2023/02/28 05:12:35;;;;;;;;;;;;;;;;;;5099513;28;19908;-48
2023/02/28 05:15:02;;;;;;;;;;;;;;;;;;5099419;28;20389;-47
2023/02/28 05:17:28;;;;;;;;;;;;;;;;;;5099365;28;19951;-49
2023/02/28 05:19:54;;;;;;;;;;;;;;;;;;5099566;28;20413;-45
2023/02/28 05:22:19;;;;;;;;;;;;;;;;;;5099262;28;19916;-46
2023/02/28 05:24:46;;;;;;;;;;;;;;;;;;5099184;28;20255;-46
2023/02/28 05:27:12;;;;;;;;;;;;;;;;;;5098953;28;19915;-49
2023/02/28 05:29:41;;;;;;;;;;;;;;;;;;5099187;28;20383;-47
2023/02/28 05:32:07;;;;;;;;;;;;;;;;;;5098880;28;20423;-48
2023/02/28 05:34:33;;;;;;;;;;;;;;;;;;5099005;28;19966;-48
2023/02/28 05:36:59;;;;;;;;;;;;;;;;;;5099161;28;19908;-46
2023/02/28 05:39:25;;;;;;;;;;;;;;;;;;5098999;28;19908;-49
2023/02/28 05:41:51;;;;;;;;;;;;;;;;;;5098632;28;19908;-50
2023/02/28 05:44:17;;;;;;;;;;;;;;;;;;5098758;28;19920;-47
2023/02/28 05:46:43;;;;;;;;;;;;;;;;;;5098872;28;19914;-48
2023/02/28 05:49:09;;;;;;;;;;;;;;;;;;5098628;28;19905;-47
2023/02/28 05:51:36;;;;;;;;;;;;;;;;;;5099047;28;19924;-47
2023/02/28 05:54:02;;;;;;;;;;;;;;;;;;5098592;28;19904;-50
2023/02/28 05:56:28;;;;;;;;;;;;;;;;;;5098207;28;19912;-47
2023/02/28 05:58:54;;;;;;;;;;;;;;;;;;5097586;28;19904;-51
2023/02/28 06:01:20;;;;;;;;;;;;;;;;;;5098407;28;19927;-50
2023/02/28 06:03:46;;;;;;;;;;;;;;;;;;5098482;28;19912;-50
2023/02/28 06:06:11;;;;;;;;;;;;;;;;;;5098474;28;19935;-46
2023/02/28 06:08:37;;;;;;;;;;;;;;;;;;5098661;28;20511;-45
2023/02/28 06:11:03;;;;;;;;;;;;;;;;;;5098067;28;19909;-49
2023/02/28 06:13:29;;;;;;;;;;;;;;;;;;5098230;28;19958;-48
2023/02/28 06:15:55;;;;;;;;;;;;;;;;;;5098351;28;20252;-45
2023/02/28 06:18:21;;;;;;;;;;;;;;;;;;5098598;28;19915;-46
2023/02/28 06:20:52;;;;;;;;;;;;;;;;;;5098379;28;20010;-47
2023/02/28 06:23:18;;;;;;;;;;;;;;;;;;5097838;28;20298;-46
2023/02/28 06:25:44;;;;;;;;;;;;;;;;;;5098269;28;19912;-50
2023/02/28 06:28:10;;;;;;;;;;;;;;;;;;5098031;28;19993;-48
2023/02/28 06:30:36;;;;;;;;;;;;;;;;;;5098407;28;19999;-48
2023/02/28 06:33:02;;;;;;;;;;;;;;;;;;5098147;28;19908;-50
2023/02/28 06:35:28;;;;;;;;;;;;;;;;;;5098346;28;19918;-45
2023/02/28 06:37:54;;;;;;;;;;;;;;;;;;5098163;28;19915;-46
2023/02/28 06:40:19;;;;;;;;;;;;;;;;;;5098059;28;20344;-50
2023/02/28 06:42:45;;;;;;;;;;;;;;;;;;5098185;28;19970;-46
2023/02/28 06:45:12;;;;;;;;;;;;;;;;;;5097649;28;19963;-49
2023/02/28 06:47:38;;;;;;;;;;;;;;;;;;5098095;28;19913;-49
2023/02/28 06:50:04;;;;;;;;;;;;;;;;;;5097965;28;19938;-48
2023/02/28 06:52:30;;;;;;;;;;;;;;;;;;5097434;28;19939;-47
2023/02/28 06:55:02;;;;;;;;;;;;;;;;;;5098130;28;20232;-51
2023/02/28 06:57:30;;;;;;;;;;;;;;;;;;5098063;28;19961;-47
2023/02/28 06:59:56;;;;;;;;;;;;;;;;;;5097578;28;19926;-47
2023/02/28 07:02:22;;;;;;;;;;;;;;;;;;5097570;28;19920;-48
2023/02/28 07:04:48;;;;;;;;;;;;;;;;;;5097880;28;19923;-47
2023/02/28 07:07:14;;;;;;;;;;;;;;;;;;5097785;28;19915;-46
2023/02/28 07:09:40;;;;;;;;;;;;;;;;;;5099810;28;19971;-48
2023/02/28 07:12:06;;;;;;;;;;;;;;;;;;5101812;28;19908;-47
2023/02/28 07:14:32;;;;;;;;;;;;;;;;;;5101368;28;19912;-48
2023/02/28 07:16:58;;;;;;;;;;;;;;;;;;5101510;28;19908;-47
2023/02/28 07:19:24;;;;;;;;;;;;;;;;;;5101835;28;19980;-49
2023/02/28 07:21:49;;;;;;;;;;;;;;;;;;5101415;28;19904;-50
2023/02/28 07:24:17;;;;;;;;;;;;;;;;;;5101758;28;19912;-49
2023/02/28 07:26:43;;;;;;;;;;;;;;;;;;5101527;28;19908;-50
2023/02/28 07:29:09;;;;;;;;;;;;;;;;;;5101693;28;19915;-48
2023/02/28 07:31:35;;;;;;;;;;;;;;;;;;5101637;28;19951;-45
2023/02/28 07:34:02;;;;;;;;;;;;;;;;;;5101565;28;20356;-48
2023/02/28 07:36:28;;;;;;;;;;;;;;;;;;5101431;28;19912;-48
2023/02/28 07:38:54;;;;;;;;;;;;;;;;;;5101420;28;20387;-48
2023/02/28 07:41:20;;;;;;;;;;;;;;;;;;5100780;28;19931;-49
2023/02/28 07:43:46;;;;;;;;;;;;;;;;;;5101329;28;20058;-47
2023/02/28 07:46:14;;;;;;;;;;;;;;;;;;5100845;28;19955;-48
2023/02/28 07:48:41;;;;;;;;;;;;;;;;;;5100766;28;20397;-52
2023/02/28 07:51:07;;;;;;;;;;;;;;;;;;5100750;28;20010;-49
2023/02/28 07:53:33;;;;;;;;;;;;;;;;;;5100744;28;19961;-50
2023/02/28 07:55:59;;;;;;;;;;;;;;;;;;5101019;28;19908;-48
2023/02/28 07:58:25;;;;;;;;;;;;;;;;;;5100771;28;19908;-47
2023/02/28 08:00:51;;;;;;;;;;;;;;;;;;5100348;28;19909;-49
2023/02/28 08:03:17;;;;;;;;;;;;;;;;;;5100858;28;19908;-48
2023/02/28 08:05:43;;;;;;;;;;;;;;;;;;5100405;28;19911;-47
2023/02/28 08:08:09;;;;;;;;;;;;;;;;;;5100763;28;20309;-50
2023/02/28 08:10:35;;;;;;;;;;;;;;;;;;5100295;28;20297;-46
2023/02/28 08:13:01;;;;;;;;;;;;;;;;;;5100484;28;19955;-47
2023/02/28 08:15:26;;;;;;;;;;;;;;;;;;5100109;28;19904;-49
2023/02/28 08:17:52;;;;;;;;;;;;;;;;;;5100515;28;19908;-48
2023/02/28 08:20:19;;;;;;;;;;;;;;;;;;5099101;28;19911;-45
2023/02/28 08:22:44;;;;;;;;;;;;;;;;;;5099867;28;20282;-49
2023/02/28 08:25:10;;;;;;;;;;;;;;;;;;5100116;28;20012;-46
2023/02/28 08:27:36;;;;;;;;;;;;;;;;;;5100255;28;19912;-48
2023/02/28 08:30:02;;;;;;;;;;;;;;;;;;5100133;28;19915;-45
2023/02/28 08:32:28;;;;;;;;;;;;;;;;;;5099816;28;19923;-49
2023/02/28 08:34:54;;;;;;;;;;;;;;;;;;5100100;28;20256;-49
2023/02/28 08:37:20;;;;;;;;;;;;;;;;;;5099995;28;19908;-50
2023/02/28 08:39:46;;;;;;;;;;;;;;;;;;5100087;28;19915;-46
2023/02/28 08:42:12;;;;;;;;;;;;;;;;;;5099952;28;19908;-51
2023/02/28 08:44:38;;;;;;;;;;;;;;;;;;5099733;28;20419;-48
2023/02/28 08:47:04;;;;;;;;;;;;;;;;;;5099846;28;19957;-49
2023/02/28 08:49:30;;;;;;;;;;;;;;;;;;5098134;28;20268;-47
2023/02/28 08:51:57;;;;;;;;;;;;;;;;;;5099940;28;19943;-47
2023/02/28 08:54:22;;;;;;;;;;;;;;;;;;5099556;28;20003;-45
2023/02/28 08:56:48;;;;;;;;;;;;;;;;;;5099264;28;19936;-46
2023/02/28 08:59:14;;;;;;;;;;;;;;;;;;5099363;28;19908;-49
2023/02/28 09:01:43;;;;;;;;;;;;;;;;;;5099231;28;20276;-46
2023/02/28 09:04:10;;;;;;;;;;;;;;;;;;5099242;28;19912;-46
2023/02/28 09:06:36;;;;;;;;;;;;;;;;;;5099315;28;19908;-50
2023/02/28 09:09:04;;;;;;;;;;;;;;;;;;5099171;28;19915;-51
2023/02/28 09:11:30;;;;;;;;;;;;;;;;;;5099238;28;20013;-48
2023/02/28 09:13:56;;;;;;;;;;;;;;;;;;5099308;28;19944;-46
2023/02/28 09:16:21;;;;;;;;;;;;;;;;;;5099116;28;20334;-48
2023/02/28 09:18:47;;;;;;;;;;;;;;;;;;5099043;28;19912;-51
2023/02/28 09:21:14;;;;;;;;;;;;;;;;;;5099200;28;19915;-46
2023/02/28 09:23:40;;;;;;;;;;;;;;;;;;5098793;28;19959;-46
2023/02/28 09:26:06;;;;;;;;;;;;;;;;;;5098828;28;19908;-48
2023/02/28 09:28:32;;;;;;;;;;;;;;;;;;5098582;28;19908;-47
2023/02/28 09:30:58;;;;;;;;;;;;;;;;;;5098762;28;19933;-49
2023/02/28 09:33:24;;;;;;;;;;;;;;;;;;5098853;28;19971;-46
2023/02/28 09:35:50;;;;;;;;;;;;;;;;;;5098638;28;20401;-46
2023/02/28 09:38:16;;;;;;;;;;;;;;;;;;5099087;28;19916;-47
2023/02/28 09:40:42;;;;;;;;;;;;;;;;;;5098674;28;19908;-51
2023/02/28 09:43:08;;;;;;;;;;;;;;;;;;5098673;28;19994;-48
2023/02/28 09:45:34;;;;;;;;;;;;;;;;;;5098983;28;19916;-49
2023/02/28 09:48:00;;;;;;;;;;;;;;;;;;5098579;28;19908;-47
2023/02/28 09:50:26;;;;;;;;;;;;;;;;;;5097015;28;19926;-48
2023/02/28 09:52:52;;;;;;;;;;;;;;;;;;5098568;28;19908;-46
2023/02/28 09:55:18;;;;;;;;;;;;;;;;;;5096956;28;20283;-48
2023/02/28 09:57:44;;;;;;;;;;;;;;;;;;5098413;28;19947;-48
2023/02/28 10:00:10;;;;;;;;;;;;;;;;;;5097981;28;19904;-51
2023/02/28 10:02:36;;;;;;;;;;;;;;;;;;5098113;28;19927;-51
2023/02/28 10:05:02;;;;;;;;;;;;;;;;;;5098584;28;19954;-50
2023/02/28 10:07:28;;;;;;;;;;;;;;;;;;5098309;28;20256;-48
2023/02/28 10:09:54;;;;;;;;;;;;;;;;;;5098312;28;19914;-52
2023/02/28 10:12:19;;;;;;;;;;;;;;;;;;5098014;28;19908;-47
2023/02/28 10:14:45;;;;;;;;;;;;;;;;;;5098170;28;19908;-50
2023/02/28 10:17:13;;;;;;;;;;;;;;;;;;5097670;28;19915;-50
2023/02/28 10:19:39;;;;;;;;;;;;;;;;;;5098202;28;19908;-54
2023/02/28 10:22:05;;;;;;;;;;;;;;;;;;5098527;28;19908;-50
2023/02/28 10:24:31;;;;;;;;;;;;;;;;;;5097865;28;19912;-51
2023/02/28 10:26:58;;;;;;;;;;;;;;;;;;5098169;28;19908;-51
2023/02/28 10:29:24;;;;;;;;;;;;;;;;;;5098143;28;19934;-51
2023/02/28 10:31:49;;;;;;;;;;;;;;;;;;5098479;28;20340;-48
2023/02/28 10:34:15;;;;;;;;;;;;;;;;;;5097936;28;19905;-47
2023/02/28 10:36:42;;;;;;;;;;;;;;;;;;5096528;28;19913;-52
2023/02/28 10:39:08;;;;;;;;;;;;;;;;;;5096610;28;19926;-48
2023/02/28 10:41:35;;;;;;;;;;;;;;;;;;5098159;28;20419;-49
2023/02/28 10:44:01;;;;;;;;;;;;;;;;;;5098953;28;19997;-53
2023/02/28 10:46:27;;;;;;;;;;;;;;;;;;5102323;28;19912;-50
2023/02/28 10:48:53;;;;;;;;;;;;;;;;;;5102250;28;20272;-50
2023/02/28 10:51:19;;;;;;;;;;;;;;;;;;5102113;28;19994;-47
2023/02/28 10:53:46;;;;;;;;;;;;;;;;;;5101825;28;20286;-50
2023/02/28 10:56:12;;;;;;;;;;;;;;;;;;5101748;28;19915;-48
2023/02/28 10:58:38;;;;;;;;;;;;;;;;;;5101397;28;19931;-51
2023/02/28 11:01:04;;;;;;;;;;;;;;;;;;5101577;28;19916;-51
2023/02/28 11:03:30;;;;;;;;;;;;;;;;;;5101516;28;19926;-50
2023/02/28 11:05:56;;;;;;;;;;;;;;;;;;5101432;28;20280;-47
2023/02/28 11:08:22;;;;;;;;;;;;;;;;;;5101544;28;19908;-49
2023/02/28 11:10:48;;;;;;;;;;;;;;;;;;5101484;28;19908;-48
2023/02/28 11:13:14;;;;;;;;;;;;;;;;;;5101562;28;19915;-51
2023/02/28 11:15:40;;;;;;;;;;;;;;;;;;5101908;28;19910;-47
2023/02/28 11:18:06;;;;;;;;;;;;;;;;;;5101951;28;19908;-51
2023/02/28 11:20:32;;;;;;;;;;;;;;;;;;5101250;28;19908;-47
2023/02/28 11:22:58;;;;;;;;;;;;;;;;;;5101409;28;19964;-48
2023/02/28 11:25:24;;;;;;;;;;;;;;;;;;5101588;28;19912;-48
2023/02/28 11:27:50;;;;;;;;;;;;;;;;;;5101219;28;20288;-48
2023/02/28 11:30:16;;;;;;;;;;;;;;;;;;5101236;28;19916;-48
2023/02/28 11:32:42;;;;;;;;;;;;;;;;;;5101351;28;20004;-50
2023/02/28 11:35:08;;;;;;;;;;;;;;;;;;5101389;28;19908;-50
2023/02/28 11:37:34;;;;;;;;;;;;;;;;;;5101536;28;19915;-49
2023/02/28 11:40:00;;;;;;;;;;;;;;;;;;5101312;28;19908;-47
2023/02/28 11:42:28;;;;;;;;;;;;;;;;;;5099677;28;19951;-52
2023/02/28 11:44:57;;;;;;;;;;;;;;;;;;5101612;28;19912;-50
2023/02/28 11:47:23;;;;;;;;;;;;;;;;;;5101087;28;19908;-46
2023/02/28 11:49:49;;;;;;;;;;;;;;;;;;5100677;28;20297;-54
2023/02/28 11:52:15;;;;;;;;;;;;;;;;;;5101022;28;19905;-50
2023/02/28 11:54:41;;;;;;;;;;;;;;;;;;5101200;28;19916;-53
2023/02/28 11:57:24;;;;;;;;;;;18.70;78.60;;;;;;5100703;28;19950;-49
2023/02/28 11:59:53;;;;;;;;;;;19.40;79.30;;;;;;5100866;28;20007;-51
2023/02/28 12:02:29;;;;;;;;;;;19.20;76.80;;;;;;5100527;28;19920;-50
2023/02/28 12:04:55;;;;;;;;;;;18.80;76.80;;;;;;5100358;28;20358;-49
2023/02/28 12:07:22;;;;;;;;;;;;;;;;;;5100293;28;19961;-50
2023/02/28 12:09:53;;;;;;;;;;;17.10;78.00;;;;;;5100457;28;19908;-50
2023/02/28 12:12:19;;;;;;;;;;;17.00;77.10;;;;;;5100674;28;19908;-50
2023/02/28 12:15:05;;;;;;;;;;;16.90;78.70;;;;;;5100345;28;19937;-50
2023/02/28 12:17:36;;;;;;;;;;;17.50;79.00;;;;;;5078992;28;19908;-48
2023/02/28 12:20:05;;;;;;;;;;;18.20;77.60;;;;;;5100752;28;19959;-50
2023/02/28 12:22:41;;;;;;;;;;;18.80;77.40;;;;;;5100467;28;20045;-53
2023/02/28 12:25:06;;;;;;;;;;;19.00;77.70;;;;;;5100324;28;19919;-47
2023/02/28 12:27:42;;;;;;;;;;;18.50;77.20;;;;;;5100319;28;19908;-52
2023/02/28 12:30:08;;;;;;;;;;;18.90;78.50;;;;;;5100307;28;19912;-52
2023/02/28 12:32:34;;;;;;;;;;;;;;;;;;5100112;28;19915;-51
2023/02/28 12:35:06;;;;;;;;;;;17.40;75.90;;;;;;5100294;28;19915;-49
2023/02/28 12:37:42;;;;;;;;;;;18.60;77.20;;;;;;5099989;28;19908;-53
2023/02/28 12:40:13;;;;;;;;;;;19.50;75.20;;;;;;5100025;28;19994;-49
2023/02/28 12:42:41;;;;;;;;;;;19.00;75.30;;;;;;5099811;28;19908;-50
2023/02/28 12:45:12;;;;;;;;;;;19.20;77.90;;;;;;5099977;28;19912;-50
2023/02/28 12:47:40;;;;;;;;;;;20.20;76.10;;;;;;5099762;28;19919;-51
2023/02/28 12:50:07;;;;;;;;;;;20.90;77.70;;;;;;5100002;28;20359;-49
2023/02/28 12:52:52;;;;;;;;;;;21.80;76.70;;;;;;5099919;28;19999;-49
2023/02/28 12:55:20;;;;;;;;;;;22.00;75.10;;;;;;5099784;28;19912;-47
2023/02/28 12:57:46;;;;;;;;;;;;;;;;;;5099571;28;19962;-51
2023/02/28 13:00:14;;;;;;;;;;;18.70;73.90;;;;;;5099470;28;19915;-53
2023/02/28 13:02:40;;;;;;;;;;;19.30;76.40;;;;;;5099832;28;19920;-49
2023/02/28 13:05:10;;;;;;;;;;;20.00;75.30;;;;;;5099601;28;20006;-51
2023/02/28 13:07:49;;;;;;;;;;;19.50;75.50;;;;;;5099177;28;19915;-48
2023/02/28 13:10:16;;;;;;;;;;;19.70;73.80;;;;;;5099455;28;19957;-49
2023/02/28 13:12:52;;;;;;;;;;;19.40;75.70;;;;;;5099471;28;19912;-49
2023/02/28 13:15:21;;;;;;;;;;;19.60;73.60;;;;;;5099448;28;19908;-49
2023/02/28 13:17:49;;;;;;;;;;;19.80;75.90;;;;;;5098985;28;20364;-53
2023/02/28 13:20:16;;;;;;;;;;;19.10;75.20;;;;;;5099355;28;20293;-50
2023/02/28 13:22:43;;;;;;;;;;;;;;;;;;5099093;28;20291;-51
2023/02/28 13:25:21;;;;;;;;;;;19.80;74.40;;;;;;5099139;28;19957;-54
2023/02/28 13:27:50;;;;;;;;;;;19.20;73.70;;;;;;5099172;28;19942;-51
2023/02/28 13:30:34;;;;;;;;;;;19.50;75.40;;;;;;5099017;28;20022;-51
2023/02/28 13:33:19;;;;;;;;;;;20.40;73.10;;;;;;5097549;28;19909;-53
2023/02/28 13:35:45;;;;;;;;;;;20.40;73.10;;;;;;5099080;28;20385;-50
2023/02/28 13:38:16;;;;;;;;;;;20.20;75.80;;;;;;5098683;28;19909;-52
2023/02/28 13:40:42;;;;;;;;;;;20.40;74.10;;;;;;5099265;28;19912;-49
2023/02/28 13:43:08;;;;;;;;;;;19.30;74.50;;;;;;5098931;28;20005;-52
2023/02/28 13:45:38;;;;;;;;;;;19.00;75.60;;;;;;5098834;28;20015;-53
2023/02/28 13:48:14;;;;;;;;;;;18.90;74.30;;;;;;5098546;28;20368;-54
2023/02/28 13:50:40;;;;;;;;;;;18.20;75.30;;;;;;5098608;28;19964;-53
2023/02/28 13:53:15;;;;;;;;;;;18.40;76.20;;;;;;5098738;28;19915;-48
2023/02/28 13:56:00;;;;;;;;;;;18.50;74.10;;;;;;5098724;28;20003;-47
2023/02/28 13:58:28;;;;;;;;;;;18.50;74.40;;;;;;5097020;28;19908;-51
2023/02/28 14:00:57;;;;;;;;;;;18.40;74.20;;;;;;5098417;28;19986;-50
2023/02/28 14:03:22;;;;;;;;;;;18.60;74.00;;;;;;5098175;28;19914;-48
2023/02/28 14:06:07;;;;;;;;;;;18.90;75.90;;;;;;5098180;28;20280;-53
2023/02/28 14:08:33;;;;;;;;;;;18.80;76.60;;;;;;5098712;28;20020;-48
2023/02/28 14:11:06;;;;;;;;;;;18.80;74.70;;;;;;5098312;28;19908;-51
2023/02/28 14:13:46;;;;;;;;;;;18.40;73.80;;;;;;5098151;28;19958;-51
2023/02/28 14:16:23;;;;;;;;;;;18.60;74.60;;;;;;5097970;28;19915;-51
2023/02/28 14:18:51;;;;;;;;;;;18.80;74.20;;;;;;5097096;28;19909;-49
2023/02/28 14:21:25;;;;;;;;;;;18.50;75.90;;;;;;5098184;28;19908;-60
2023/02/28 14:24:06;;;;;;;;;;;18.30;76.00;;;;;;5098393;28;19908;-60
2023/02/28 14:26:34;;;;;;;;;;;18.10;74.10;;;;;;5097954;28;20453;-60
2023/02/28 14:29:17;;;;;;;;;;;18.00;74.10;;;;;;5097879;28;19916;-60
2023/02/28 14:32:06;;;;;;;;;;;17.90;74.30;;;;;;5098436;28;19998;-60
2023/02/28 14:34:37;;;;;;;;;;;18.20;74.70;;;;;;5092097;28;19908;-60
2023/02/28 14:37:04;;;;;;;;;;;17.90;74.20;;;;;;5098038;28;19947;-60
2023/02/28 14:39:31;;;;;;;;;;;17.90;76.20;;;;;;5097802;28;19951;-60
2023/02/28 14:41:58;;;;;;;;;;;;;;;;;;5097419;28;19912;-60
2023/02/28 14:44:25;;;;;;;;;;;;;;;;;;5097725;28;20057;-60
2023/02/28 14:46:51;;;;;;;;;;;;;;;;;;5097623;28;20045;-61
2023/02/28 14:49:17;;;;;;;;;;;;;;;;;;5097819;28;19969;-61
2023/02/28 14:51:42;;;;;;;;;;;17.20;75.60;;;;;;5097841;28;19912;-60
2023/02/28 14:54:13;;;;;;;;;;;17.50;76.80;;;;;;5097369;28;19916;-60
2023/02/28 14:56:39;;;;;;;;;;;17.60;77.00;;;;;;5097856;28;19908;-60
2023/02/28 14:59:18;;;;;;;;;;;17.50;76.90;;;;;;5097883;28;19915;-60
2023/02/28 15:01:44;;;;;;;;;;;17.60;76.90;;;;;;5097410;28;20327;-60
2023/02/28 15:04:11;;;;;;;;;;;;;;;;;;5097533;28;19916;-60
2023/02/28 15:06:36;;;;;;;;;;;;;;;;;;5097518;28;20364;-60
2023/02/28 15:09:02;;;;;;;;;;;;;;;;;;5097434;28;19911;-60
2023/02/28 15:11:28;;;;;;;;;;;;;;;;;;5097457;28;19908;-60
2023/02/28 15:13:57;;;;;;;;;;;;;;;;;;5097370;28;19908;-60
2023/02/28 15:16:23;;;;;;;;;;;;;;;;;;5097580;28;19908;-60
2023/02/28 15:18:49;;;;;;;;;;;;;;;;;;5097436;28;19904;-60
2023/02/28 15:21:15;;;;;;;;;;;;;;;;;;5097170;28;19908;-60
2023/02/28 15:23:41;;;;;;;;;;;;;;;;;;5097537;28;19961;-60
2023/02/28 15:26:07;;;;;;;;;;;;;;;;;;5097544;28;20407;-60
2023/02/28 15:28:33;;;;;;;;;;;;;;;;;;5097627;28;19908;-60
2023/02/28 15:30:59;;;;;;;;;;;;;;;;;;5100100;28;19951;-61
2023/02/28 15:33:25;;;;;;;;;;;;;;;;;;5101216;28;19908;-61
2023/02/28 15:35:51;;;;;;;;;;;;;;;;;;5101387;28;19935;-60
2023/02/28 15:38:17;;;;;;;;;;;;;;;;;;5100944;28;19958;-60
2023/02/28 15:40:43;;;;;;;;;;;;;;;;;;5101216;28;19908;-61
2023/02/28 15:43:09;;;;;;;;;;;;;;;;;;5100883;28;19908;-60
2023/02/28 15:45:38;;;;;;;;;;;;;;;;;;5101259;28;19912;-61
2023/02/28 15:48:03;;;;;;;;;;;;;;;;;;5100828;28;20298;-60
2023/02/28 15:50:30;;;;;;;;;;;;;;;;;;5101032;28;19951;-60
2023/02/28 15:52:56;;;;;;;;;;;;;;;;;;5100749;28;19916;-60
2023/02/28 15:55:22;;;;;;;;;;;;;;;;;;5101105;28;20371;-60
2023/02/28 15:57:48;;;;;;;;;;;;;;;;;;5100864;28;20279;-60
2023/02/28 16:00:14;;;;;;;;;;;;;;;;;;5100867;28;19908;-60
2023/02/28 16:02:40;;;;;;;;;;;;;;;;;;5100336;28;19920;-60
2023/02/28 16:05:06;;;;;;;;;;;;;;;;;;5100646;28;19916;-60
2023/02/28 16:07:32;;;;;;;;;;;;;;;;;;5100968;28;19908;-60
2023/02/28 16:09:58;;;;;;;;;;;;;;;;;;5100446;28;19919;-61
2023/02/28 16:12:23;;;;;;;;;;;;;;;;;;5100467;28;19908;-60
2023/02/28 16:14:50;;;;;;;;;;;;;;;;;;5100337;28;19908;-59